General Aviation Weather

Text Reports

Enter one or more of the following location identifiers separated by a space:

Zip Code, Four-Character ICAO or Three-Character IATA airport codes.

METAR - Aviation Routine Weather Report
KPLU - Puyallup, Washington
Updated at 3:55 PM GMT on April 28, 2015 (8:55 AM PDT):
METAR KPLU 281555Z AUTO 00000KT 10SM OVC037 14/12 A3008 RMK AO2
TAF - Terminal Area Forecast
KPLU - Puyallup, Washington
Updated at 3:55 PM GMT on April 28, 2015 (8:55 AM PDT):
No TAF is currently available for this location.
Decoded:
No decoded TAF is available.
PIREP - Pilot Weather Report
KPLU - Puyallup, Washington
Updated at 3:55 PM GMT on April 28, 2015 (8:55 AM PDT):
No PIREP is currently available for this location.
AIRMET - Airmens Meteorological Information
KPLU - Puyallup, Washington
Updated at 3:55 PM GMT on April 28, 2015 (8:55 AM PDT):
No AIRMET is currently available for this location.
SIGMET - Significant Meteorological Information
KPLU - Puyallup, Washington
Updated at 3:55 PM GMT on April 28, 2015 (8:55 AM PDT):
No SIGMET is currently available for this location.
NOTAM - Notice to Airmen
KPLU - Puyallup, Washington
Updated at 3:55 PM GMT on April 28, 2015 (8:55 AM PDT):
No NOTAM is currently available for this location.
Forecast Area
KPLU - Puyallup, Washington
Updated at 3:55 PM GMT on April 28, 2015 (8:55 AM PDT):
No NOTAM is currently available for this location.
Aviation Weather Maps